KMUI/MUI METAR and TAF weather

Enter ICAO airport designator
Station Type Date Time Source
KMUI METAR 2022/11/26 07:55 UTC NOAA

KMUI 260755Z AUTO M 10SM M 06/M04 A3006 RMK AO2 SLP184 T00581044 TSNO CHINO RWY07 $


Station Type Date Time Source
KMUI Decoded METAR 2022/11/26 07:55 UTC NOAA

Muir Army Air Field / Indiantown, PA, United States (KMUI) 40-26N 076-34W
Nov 26, 2022 - 02:55 AM EST / 2022.11.26 0755 UTC
Visibility: 10 mile(s):0
Temperature: 42.4 F (5.8 C)
Dew Point: 24.1 F (-4.4 C)
Relative Humidity: 47%
Pressure (altimeter): 30.06 in. Hg (1017 hPa)
ob: KMUI 260755Z AUTO M 10SM M 06/M04 A3006 RMK AO2 SLP184 T00581044 TSNO CHINO RWY07
cycle: 8

Station Type Date Time Source
KMUI TAF 2022/11/25 17:39 UTC NOAA

TAF TAF
AMD KMUI 251735Z 2517/2617 29020G25KT 9999 BKN018 QNH2985INS
BECMG 2520/2521 30009KT 9999 BKN030 QNH2986INS
BECMG 2600/2601 30009KT 9999 BKN030 620301 QNH2996INS
BECMG 2611/2612 29006KT 9999 SKC QNH3005INS TX08/2517Z TN03/2608Z LAST NO
AMDS AFT 2517 NEXT 2811

Example: see airport list